sensor_id;sensor_type;location;lat;lon;timestamp;temperature;humidity
19646;DHT22;9971;52.446;13.452;2023-07-08T00:20:16;18.90;99.90
19646;DHT22;9971;52.446;13.452;2023-07-08T00:25:31;18.80;99.90
19646;DHT22;9971;52.446;13.452;2023-07-08T00:30:54;18.60;99.90
19646;DHT22;9971;52.446;13.452;2023-07-08T00:36:01;18.50;99.90
19646;DHT22;9971;52.446;13.452;2023-07-08T00:41:10;18.50;99.90
19646;DHT22;9971;52.446;13.452;2023-07-08T00:46:33;18.40;99.90
19646;DHT22;9971;52.446;13.452;2023-07-08T00:51:34;18.60;99.90
19646;DHT22;9971;52.446;13.452;2023-07-08T00:56:46;18.60;99.90
19646;DHT22;9971;52.446;13.452;2023-07-08T01:01:46;18.60;99.90
19646;DHT22;9971;52.446;13.452;2023-07-08T01:06:50;18.60;99.90
19646;DHT22;9971;52.446;13.452;2023-07-08T01:11:50;18.40;99.90
19646;DHT22;9971;52.446;13.452;2023-07-08T01:16:52;18.30;99.90
19646;DHT22;9971;52.446;13.452;2023-07-08T01:22:09;18.20;99.90
19646;DHT22;9971;52.446;13.452;2023-07-08T01:27:18;18.20;99.90
19646;DHT22;9971;52.446;13.452;2023-07-08T01:32:21;18.10;99.90
19646;DHT22;9971;52.446;13.452;2023-07-08T01:37:32;18.00;99.90
19646;DHT22;9971;52.446;13.452;2023-07-08T01:42:37;18.10;99.90
19646;DHT22;9971;52.446;13.452;2023-07-08T01:47:41;18.00;99.90
19646;DHT22;9971;52.446;13.452;2023-07-08T01:52:43;17.90;99.90
19646;DHT22;9971;52.446;13.452;2023-07-08T01:57:46;17.80;99.90
19646;DHT22;9971;52.446;13.452;2023-07-08T02:02:50;17.80;99.90
19646;DHT22;9971;52.446;13.452;2023-07-08T02:07:56;17.70;99.90
19646;DHT22;9971;52.446;13.452;2023-07-08T02:13:01;17.70;99.90
19646;DHT22;9971;52.446;13.452;2023-07-08T02:18:03;17.70;99.90
19646;DHT22;9971;52.446;13.452;2023-07-08T02:23:05;17.60;99.90
19646;DHT22;9971;52.446;13.452;2023-07-08T02:28:08;17.60;99.90
19646;DHT22;9971;52.446;13.452;2023-07-08T02:33:11;17.50;99.90
19646;DHT22;9971;52.446;13.452;2023-07-08T02:38:14;17.50;99.90
19646;DHT22;9971;52.446;13.452;2023-07-08T02:43:16;17.40;99.90
19646;DHT22;9971;52.446;13.452;2023-07-08T02:48:19;17.30;99.90
19646;DHT22;9971;52.446;13.452;2023-07-08T02:53:21;17.10;99.90
19646;DHT22;9971;52.446;13.452;2023-07-08T02:58:24;17.00;99.90
19646;DHT22;9971;52.446;13.452;2023-07-08T03:03:26;17.00;99.90
19646;DHT22;9971;52.446;13.452;2023-07-08T03:08:28;17.10;99.90
19646;DHT22;9971;52.446;13.452;2023-07-08T03:13:30;17.10;99.90
19646;DHT22;9971;52.446;13.452;2023-07-08T03:18:32;17.10;99.90
19646;DHT22;9971;52.446;13.452;2023-07-08T03:23:34;17.10;99.90
19646;DHT22;9971;52.446;13.452;2023-07-08T03:28:37;17.10;99.90
19646;DHT22;9971;52.446;13.452;2023-07-08T03:33:39;17.10;99.90
19646;DHT22;9971;52.446;13.452;2023-07-08T03:38:42;17.20;99.90
19646;DHT22;9971;52.446;13.452;2023-07-08T03:43:44;17.10;99.90
19646;DHT22;9971;52.446;13.452;2023-07-08T03:48:47;17.20;99.90
19646;DHT22;9971;52.446;13.452;2023-07-08T03:53:49;17.20;99.90
19646;DHT22;9971;52.446;13.452;2023-07-08T03:58:51;17.30;99.90
19646;DHT22;9971;52.446;13.452;2023-07-08T04:03:54;17.40;99.90
19646;DHT22;9971;52.446;13.452;2023-07-08T04:08:56;17.40;99.90
19646;DHT22;9971;52.446;13.452;2023-07-08T04:13:58;17.50;99.90
19646;DHT22;9971;52.446;13.452;2023-07-08T04:19:00;17.50;99.90
19646;DHT22;9971;52.446;13.452;2023-07-08T04:24:03;17.60;99.90
19646;DHT22;9971;52.446;13.452;2023-07-08T04:29:11;17.70;99.90
19646;DHT22;9971;52.446;13.452;2023-07-08T04:34:12;17.90;99.90
19646;DHT22;9971;52.446;13.452;2023-07-08T04:39:14;18.00;99.90
19646;DHT22;9971;52.446;13.452;2023-07-08T04:44:16;18.10;99.90
19646;DHT22;9971;52.446;13.452;2023-07-08T04:49:19;18.20;99.90
19646;DHT22;9971;52.446;13.452;2023-07-08T04:54:25;18.40;99.90
19646;DHT22;9971;52.446;13.452;2023-07-08T04:59:28;18.50;99.90
19646;DHT22;9971;52.446;13.452;2023-07-08T05:04:35;18.60;99.90
19646;DHT22;9971;52.446;13.452;2023-07-08T05:09:39;18.70;99.90
19646;DHT22;9971;52.446;13.452;2023-07-08T05:14:44;18.90;99.90
19646;DHT22;9971;52.446;13.452;2023-07-08T05:19:47;19.00;99.90
19646;DHT22;9971;52.446;13.452;2023-07-08T05:24:50;19.20;99.90
19646;DHT22;9971;52.446;13.452;2023-07-08T05:29:52;19.40;99.90
19646;DHT22;9971;52.446;13.452;2023-07-08T05:34:55;19.70;99.90
19646;DHT22;9971;52.446;13.452;2023-07-08T05:45:37;20.10;99.90
19646;DHT22;9971;52.446;13.452;2023-07-08T05:51:03;20.30;99.90
19646;DHT22;9971;52.446;13.452;2023-07-08T05:56:24;20.60;99.90
19646;DHT22;9971;52.446;13.452;2023-07-08T06:01:52;20.70;99.90
19646;DHT22;9971;52.446;13.452;2023-07-08T06:07:18;20.90;99.90
19646;DHT22;9971;52.446;13.452;2023-07-08T06:12:29;21.10;99.90
19646;DHT22;9971;52.446;13.452;2023-07-08T06:17:42;21.30;99.90
19646;DHT22;9971;52.446;13.452;2023-07-08T06:23:19;21.40;99.90
19646;DHT22;9971;52.446;13.452;2023-07-08T06:50:07;22.30;99.90
19646;DHT22;9971;52.446;13.452;2023-07-08T06:55:10;22.60;99.90
19646;DHT22;9971;52.446;13.452;2023-07-08T07:00:13;22.90;99.90
19646;DHT22;9971;52.446;13.452;2023-07-08T07:21:21;23.60;99.90
19646;DHT22;9971;52.446;13.452;2023-07-08T07:26:25;23.70;99.90
19646;DHT22;9971;52.446;13.452;2023-07-08T07:31:27;23.90;99.90
19646;DHT22;9971;52.446;13.452;2023-07-08T07:36:29;24.00;99.90
19646;DHT22;9971;52.446;13.452;2023-07-08T07:41:32;24.20;99.90
19646;DHT22;9971;52.446;13.452;2023-07-08T07:51:58;24.50;99.90
19646;DHT22;9971;52.446;13.452;2023-07-08T07:57:09;24.90;99.40
19646;DHT22;9971;52.446;13.452;2023-07-08T08:02:17;25.20;98.90
19646;DHT22;9971;52.446;13.452;2023-07-08T08:07:20;25.50;99.90
19646;DHT22;9971;52.446;13.452;2023-07-08T08:12:22;25.70;99.90
19646;DHT22;9971;52.446;13.452;2023-07-08T08:17:25;25.90;99.90
19646;DHT22;9971;52.446;13.452;2023-07-08T08:22:29;26.10;99.20
19646;DHT22;9971;52.446;13.452;2023-07-08T08:27:35;26.30;98.60
19646;DHT22;9971;52.446;13.452;2023-07-08T08:32:38;26.50;98.30
19646;DHT22;9971;52.446;13.452;2023-07-08T08:37:43;26.70;96.60
19646;DHT22;9971;52.446;13.452;2023-07-08T08:42:50;26.90;96.50
19646;DHT22;9971;52.446;13.452;2023-07-08T08:47:53;27.30;94.40
19646;DHT22;9971;52.446;13.452;2023-07-08T08:52:53;27.50;92.80
19646;DHT22;9971;52.446;13.452;2023-07-08T08:58:06;27.70;92.00
19646;DHT22;9971;52.446;13.452;2023-07-08T09:03:09;28.00;90.20
19646;DHT22;9971;52.446;13.452;2023-07-08T09:08:20;28.20;89.80
19646;DHT22;9971;52.446;13.452;2023-07-08T09:13:35;28.40;80.50
19646;DHT22;9971;52.446;13.452;2023-07-08T09:18:38;28.70;81.50
19646;DHT22;9971;52.446;13.452;2023-07-08T09:23:39;29.00;81.30
19646;DHT22;9971;52.446;13.452;2023-07-08T09:28:42;29.20;72.60
19646;DHT22;9971;52.446;13.452;2023-07-08T09:33:45;29.50;65.60
19646;DHT22;9971;52.446;13.452;2023-07-08T09:38:48;29.80;67.40
19646;DHT22;9971;52.446;13.452;2023-07-08T09:43:50;29.80;60.70
19646;DHT22;9971;52.446;13.452;2023-07-08T09:48:53;30.00;65.40
19646;DHT22;9971;52.446;13.452;2023-07-08T09:53:55;30.10;64.00
19646;DHT22;9971;52.446;13.452;2023-07-08T09:58:58;30.30;60.50
19646;DHT22;9971;52.446;13.452;2023-07-08T10:04:00;30.50;60.50
19646;DHT22;9971;52.446;13.452;2023-07-08T10:09:05;30.70;62.20
19646;DHT22;9971;52.446;13.452;2023-07-08T10:14:11;30.90;62.50
19646;DHT22;9971;52.446;13.452;2023-07-08T10:19:13;31.10;58.40
19646;DHT22;9971;52.446;13.452;2023-07-08T10:24:26;31.50;59.30
19646;DHT22;9971;52.446;13.452;2023-07-08T10:29:29;31.70;58.90
19646;DHT22;9971;52.446;13.452;2023-07-08T10:34:57;31.90;57.70
19646;DHT22;9971;52.446;13.452;2023-07-08T10:40:05;31.90;56.70
19646;DHT22;9971;52.446;13.452;2023-07-08T10:45:13;32.20;57.50
19646;DHT22;9971;52.446;13.452;2023-07-08T10:50:29;32.50;54.40
19646;DHT22;9971;52.446;13.452;2023-07-08T10:55:35;32.50;54.60
19646;DHT22;9971;52.446;13.452;2023-07-08T11:00:38;32.40;52.90
19646;DHT22;9971;52.446;13.452;2023-07-08T11:05:55;32.60;52.70
19646;DHT22;9971;52.446;13.452;2023-07-08T11:10:56;32.50;52.60
19646;DHT22;9971;52.446;13.452;2023-07-08T11:16:02;32.90;54.60
19646;DHT22;9971;52.446;13.452;2023-07-08T11:21:05;33.10;51.00
19646;DHT22;9971;52.446;13.452;2023-07-08T11:26:28;32.80;49.70
19646;DHT22;9971;52.446;13.452;2023-07-08T11:31:36;32.70;50.20
19646;DHT22;9971;52.446;13.452;2023-07-08T11:36:38;32.80;50.20
19646;DHT22;9971;52.446;13.452;2023-07-08T11:41:43;33.40;51.50
19646;DHT22;9971;52.446;13.452;2023-07-08T11:46:54;33.60;48.70
19646;DHT22;9971;52.446;13.452;2023-07-08T11:51:55;33.70;49.00
19646;DHT22;9971;52.446;13.452;2023-07-08T11:57:00;33.80;48.10
19646;DHT22;9971;52.446;13.452;2023-07-08T12:02:18;33.80;48.50
19646;DHT22;9971;52.446;13.452;2023-07-08T12:07:20;33.60;48.00
19646;DHT22;9971;52.446;13.452;2023-07-08T12:12:25;33.90;47.00
19646;DHT22;9971;52.446;13.452;2023-07-08T12:17:26;34.00;47.00
19646;DHT22;9971;52.446;13.452;2023-07-08T12:22:29;34.10;48.20
19646;DHT22;9971;52.446;13.452;2023-07-08T12:27:31;34.60;49.10
19646;DHT22;9971;52.446;13.452;2023-07-08T12:32:33;35.50;48.30
19646;DHT22;9971;52.446;13.452;2023-07-08T12:37:35;35.50;48.70
19646;DHT22;9971;52.446;13.452;2023-07-08T12:42:37;35.90;46.80
19646;DHT22;9971;52.446;13.452;2023-07-08T12:47:40;35.90;46.20
19646;DHT22;9971;52.446;13.452;2023-07-08T12:52:44;35.80;45.60
19646;DHT22;9971;52.446;13.452;2023-07-08T12:57:47;35.80;44.30
19646;DHT22;9971;52.446;13.452;2023-07-08T13:02:46;35.50;45.30
19646;DHT22;9971;52.446;13.452;2023-07-08T13:07:48;35.70;44.70
19646;DHT22;9971;52.446;13.452;2023-07-08T13:12:54;36.10;44.50
19646;DHT22;9971;52.446;13.452;2023-07-08T13:17:53;36.10;45.50
19646;DHT22;9971;52.446;13.452;2023-07-08T13:22:57;36.00;43.80
19646;DHT22;9971;52.446;13.452;2023-07-08T13:28:00;36.10;42.60
19646;DHT22;9971;52.446;13.452;2023-07-08T13:33:00;36.00;42.00
19646;DHT22;9971;52.446;13.452;2023-07-08T13:38:04;35.80;42.80
19646;DHT22;9971;52.446;13.452;2023-07-08T13:43:06;35.80;44.40
19646;DHT22;9971;52.446;13.452;2023-07-08T13:48:11;36.20;43.60
19646;DHT22;9971;52.446;13.452;2023-07-08T13:53:16;36.50;43.60
19646;DHT22;9971;52.446;13.452;2023-07-08T13:58:18;36.20;42.00
19646;DHT22;9971;52.446;13.452;2023-07-08T14:03:20;36.40;42.10
19646;DHT22;9971;52.446;13.452;2023-07-08T14:08:23;36.50;41.60
19646;DHT22;9971;52.446;13.452;2023-07-08T14:13:27;36.70;42.90
19646;DHT22;9971;52.446;13.452;2023-07-08T14:18:31;37.00;42.50
19646;DHT22;9971;52.446;13.452;2023-07-08T14:23:33;36.70;40.90
19646;DHT22;9971;52.446;13.452;2023-07-08T14:28:36;36.90;41.80
19646;DHT22;9971;52.446;13.452;2023-07-08T14:33:38;36.70;42.50
19646;DHT22;9971;52.446;13.452;2023-07-08T14:38:40;36.50;42.20
19646;DHT22;9971;52.446;13.452;2023-07-08T14:43:43;36.50;42.00
19646;DHT22;9971;52.446;13.452;2023-07-08T14:48:46;36.40;41.00
19646;DHT22;9971;52.446;13.452;2023-07-08T14:53:48;36.40;41.20
19646;DHT22;9971;52.446;13.452;2023-07-08T14:58:51;36.50;40.90
19646;DHT22;9971;52.446;13.452;2023-07-08T15:03:53;36.50;40.30
19646;DHT22;9971;52.446;13.452;2023-07-08T15:08:56;36.50;40.00
19646;DHT22;9971;52.446;13.452;2023-07-08T15:13:58;36.40;39.50
19646;DHT22;9971;52.446;13.452;2023-07-08T15:19:01;36.40;39.40
19646;DHT22;9971;52.446;13.452;2023-07-08T15:24:03;36.40;40.30
19646;DHT22;9971;52.446;13.452;2023-07-08T15:29:06;36.10;39.50
19646;DHT22;9971;52.446;13.452;2023-07-08T15:34:11;36.20;39.90
19646;DHT22;9971;52.446;13.452;2023-07-08T15:39:10;36.20;40.00
19646;DHT22;9971;52.446;13.452;2023-07-08T15:44:12;36.30;39.40
19646;DHT22;9971;52.446;13.452;2023-07-08T15:49:17;36.30;40.70
19646;DHT22;9971;52.446;13.452;2023-07-08T15:54:17;36.00;40.60
19646;DHT22;9971;52.446;13.452;2023-07-08T15:59:21;36.30;39.70
19646;DHT22;9971;52.446;13.452;2023-07-08T16:04:24;36.10;41.10
19646;DHT22;9971;52.446;13.452;2023-07-08T16:09:25;36.10;40.20
19646;DHT22;9971;52.446;13.452;2023-07-08T16:14:27;36.20;39.70
19646;DHT22;9971;52.446;13.452;2023-07-08T16:19:29;35.90;39.70
19646;DHT22;9971;52.446;13.452;2023-07-08T16:24:32;35.80;39.80
19646;DHT22;9971;52.446;13.452;2023-07-08T16:29:34;36.00;39.10
19646;DHT22;9971;52.446;13.452;2023-07-08T16:34:37;35.80;38.90
19646;DHT22;9971;52.446;13.452;2023-07-08T16:39:39;35.80;38.60
19646;DHT22;9971;52.446;13.452;2023-07-08T16:44:41;35.80;40.40
19646;DHT22;9971;52.446;13.452;2023-07-08T16:49:44;35.60;40.80
19646;DHT22;9971;52.446;13.452;2023-07-08T16:54:46;35.40;41.30
19646;DHT22;9971;52.446;13.452;2023-07-08T16:59:49;35.20;42.20
19646;DHT22;9971;52.446;13.452;2023-07-08T17:04:52;35.20;42.90
19646;DHT22;9971;52.446;13.452;2023-07-08T17:09:55;35.10;42.60
19646;DHT22;9971;52.446;13.452;2023-07-08T17:14:57;35.00;42.10
19646;DHT22;9971;52.446;13.452;2023-07-08T17:20:00;34.90;43.20
19646;DHT22;9971;52.446;13.452;2023-07-08T17:25:04;34.90;42.60
19646;DHT22;9971;52.446;13.452;2023-07-08T17:30:05;34.70;43.10
19646;DHT22;9971;52.446;13.452;2023-07-08T17:35:12;34.50;43.50
19646;DHT22;9971;52.446;13.452;2023-07-08T17:40:18;34.20;43.40
19646;DHT22;9971;52.446;13.452;2023-07-08T17:45:19;34.10;43.00
19646;DHT22;9971;52.446;13.452;2023-07-08T17:50:23;33.90;43.20
19646;DHT22;9971;52.446;13.452;2023-07-08T17:55:25;33.70;44.30
19646;DHT22;9971;52.446;13.452;2023-07-08T18:00:27;33.70;44.40
19646;DHT22;9971;52.446;13.452;2023-07-08T18:05:29;33.40;45.00
19646;DHT22;9971;52.446;13.452;2023-07-08T18:10:31;33.20;44.60
19646;DHT22;9971;52.446;13.452;2023-07-08T18:15:34;33.00;44.60
19646;DHT22;9971;52.446;13.452;2023-07-08T18:20:36;32.70;45.80
19646;DHT22;9971;52.446;13.452;2023-07-08T18:25:38;32.60;45.30
19646;DHT22;9971;52.446;13.452;2023-07-08T18:30:41;32.40;46.50
19646;DHT22;9971;52.446;13.452;2023-07-08T18:35:44;32.20;46.40
19646;DHT22;9971;52.446;13.452;2023-07-08T18:40:44;31.80;47.50
19646;DHT22;9971;52.446;13.452;2023-07-08T18:45:47;31.40;48.00
19646;DHT22;9971;52.446;13.452;2023-07-08T18:50:53;31.10;48.60
19646;DHT22;9971;52.446;13.452;2023-07-08T18:55:54;30.60;49.80
19646;DHT22;9971;52.446;13.452;2023-07-08T19:00:56;30.20;51.10
19646;DHT22;9971;52.446;13.452;2023-07-08T19:05:59;30.00;50.90
19646;DHT22;9971;52.446;13.452;2023-07-08T19:11:01;29.70;52.00
19646;DHT22;9971;52.446;13.452;2023-07-08T19:16:03;29.20;53.80
19646;DHT22;9971;52.446;13.452;2023-07-08T19:21:13;28.90;55.90
19646;DHT22;9971;52.446;13.452;2023-07-08T19:26:15;28.50;58.20
19646;DHT22;9971;52.446;13.452;2023-07-08T19:31:21;28.10;59.50
19646;DHT22;9971;52.446;13.452;2023-07-08T19:36:22;27.80;60.90
19646;DHT22;9971;52.446;13.452;2023-07-08T19:41:34;27.50;61.80
19646;DHT22;9971;52.446;13.452;2023-07-08T19:46:37;27.20;63.00
19646;DHT22;9971;52.446;13.452;2023-07-08T19:51:41;26.90;63.90
19646;DHT22;9971;52.446;13.452;2023-07-08T19:56:45;26.70;64.60
19646;DHT22;9971;52.446;13.452;2023-07-08T20:01:47;26.50;66.10
19646;DHT22;9971;52.446;13.452;2023-07-08T20:06:52;26.20;67.20
19646;DHT22;9971;52.446;13.452;2023-07-08T20:11:56;26.10;67.60
19646;DHT22;9971;52.446;13.452;2023-07-08T20:16:59;25.90;68.00
19646;DHT22;9971;52.446;13.452;2023-07-08T20:22:08;25.70;68.40
19646;DHT22;9971;52.446;13.452;2023-07-08T20:27:11;25.60;69.30
19646;DHT22;9971;52.446;13.452;2023-07-08T20:32:14;25.40;69.30
19646;DHT22;9971;52.446;13.452;2023-07-08T20:53:27;24.80;71.10
19646;DHT22;9971;52.446;13.452;2023-07-08T20:58:31;24.60;71.30
19646;DHT22;9971;52.446;13.452;2023-07-08T21:03:35;24.40;72.10
19646;DHT22;9971;52.446;13.452;2023-07-08T21:08:38;24.30;72.30
19646;DHT22;9971;52.446;13.452;2023-07-08T21:13:42;24.10;73.40
19646;DHT22;9971;52.446;13.452;2023-07-08T21:18:47;24.00;73.50
19646;DHT22;9971;52.446;13.452;2023-07-08T21:23:51;23.90;73.70
19646;DHT22;9971;52.446;13.452;2023-07-08T21:28:56;23.80;74.30
19646;DHT22;9971;52.446;13.452;2023-07-08T21:33:58;23.60;75.00
19646;DHT22;9971;52.446;13.452;2023-07-08T21:39:03;23.50;75.60
19646;DHT22;9971;52.446;13.452;2023-07-08T21:44:04;23.40;76.10
19646;DHT22;9971;52.446;13.452;2023-07-08T21:49:08;23.20;77.10
19646;DHT22;9971;52.446;13.452;2023-07-08T21:54:11;23.10;77.70
19646;DHT22;9971;52.446;13.452;2023-07-08T21:59:17;23.10;78.10
19646;DHT22;9971;52.446;13.452;2023-07-08T22:04:20;22.90;78.70
19646;DHT22;9971;52.446;13.452;2023-07-08T22:09:22;22.80;80.30
19646;DHT22;9971;52.446;13.452;2023-07-08T22:14:25;22.70;81.70
19646;DHT22;9971;52.446;13.452;2023-07-08T22:19:28;22.60;82.00
19646;DHT22;9971;52.446;13.452;2023-07-08T22:24:30;22.50;82.60
19646;DHT22;9971;52.446;13.452;2023-07-08T22:29:33;22.40;82.10
19646;DHT22;9971;52.446;13.452;2023-07-08T22:34:36;22.30;83.60
19646;DHT22;9971;52.446;13.452;2023-07-08T22:39:41;22.20;84.10
19646;DHT22;9971;52.446;13.452;2023-07-08T22:44:44;22.20;85.30
19646;DHT22;9971;52.446;13.452;2023-07-08T22:55:09;21.90;88.40
19646;DHT22;9971;52.446;13.452;2023-07-08T23:00:20;21.90;89.50
19646;DHT22;9971;52.446;13.452;2023-07-08T23:10:48;21.70;90.00
19646;DHT22;9971;52.446;13.452;2023-07-08T23:15:51;21.70;90.80
19646;DHT22;9971;52.446;13.452;2023-07-08T23:20:53;21.60;91.30
19646;DHT22;9971;52.446;13.452;2023-07-08T23:25:55;21.50;91.70
19646;DHT22;9971;52.446;13.452;2023-07-08T23:31:06;21.30;92.90
19646;DHT22;9971;52.446;13.452;2023-07-08T23:57:54;20.90;96.40
